Time;durP1;ratioP1;P1;durP2;ratioP2;P2;SDS_P1;SDS_P2;PMS_P1;PMS_P2;Temp;Humidity;BMP_temperature;BMP_pressure;BME280_temperature;BME280_humidity;BME280_pressure;Samples;Min_cycle;Max_cycle;Signal;HPM_P1;HPM_P2
2022/05/24 00:01:59;;;;;;;7.12;5.25;;;24.90;76.30;;;;;;11022663;32;20044;-72
2022/05/24 00:08:04;;;;;;;5.90;4.50;;;24.80;76.20;;;;;;11008792;32;20368;-72
2022/05/24 00:14:11;;;;;;;7.49;5.10;;;24.80;76.40;;;;;;10648725;32;12137031;-72
2022/05/24 00:20:15;;;;;;;12.27;5.53;;;24.70;76.50;;;;;;10907508;32;20058;-73
2022/05/24 00:26:31;;;;;;;10.35;4.82;;;24.70;77.00;;;;;;10907084;32;20023;-72
2022/05/24 00:32:33;;;;;;;7.55;5.65;;;24.60;77.00;;;;;;10906591;32;20085;-72
2022/05/24 00:38:39;;;;;;;6.62;3.35;;;24.60;77.10;;;;;;10906685;32;20038;-75
2022/05/24 00:44:48;;;;;;;9.55;4.93;;;24.60;77.00;;;;;;11001604;32;20018;-72
2022/05/24 00:50:52;;;;;;;6.82;4.37;;;24.60;76.90;;;;;;11023287;32;20022;-74
2022/05/24 00:57:10;;;;;;;6.35;4.20;;;24.50;76.90;;;;;;11020034;32;20030;-73
2022/05/24 01:03:13;;;;;;;6.47;4.03;;;24.60;77.00;;;;;;11022551;32;20049;-76
2022/05/24 01:09:27;;;;;;;12.30;4.70;;;24.50;77.00;;;;;;11018439;32;20014;-73
2022/05/24 01:15:44;;;;;;;12.13;5.55;;;24.40;77.40;;;;;;10992832;26;20411;-73
2022/05/24 01:21:48;;;;;;;8.98;4.50;;;24.40;77.60;;;;;;10946029;32;20049;-73
2022/05/24 01:27:50;;;;;;;5.75;3.75;;;24.30;77.70;;;;;;10946005;32;20011;-74
2022/05/24 01:40:14;;;;;;;6.50;4.32;;;24.40;77.50;;;;;;10945440;32;20054;-73
2022/05/24 01:46:34;;;;;;;7.00;5.15;;;24.40;77.50;;;;;;10944264;32;20015;-73
2022/05/24 01:52:52;;;;;;;9.82;5.60;;;24.30;77.50;;;;;;10944675;32;20046;-73
2022/05/24 01:59:01;;;;;;;6.75;4.78;;;24.30;77.50;;;;;;10943805;32;20035;-77
2022/05/24 02:05:05;;;;;;;8.93;5.90;;;24.20;77.90;;;;;;10943346;32;20053;-73
2022/05/24 02:11:08;;;;;;;9.30;5.55;;;24.20;77.80;;;;;;10943690;32;20177;-73
2022/05/24 02:17:17;;;;;;;8.68;5.87;;;24.10;78.00;;;;;;10943701;32;20023;-73
2022/05/24 02:23:20;;;;;;;7.30;5.23;;;24.10;77.90;;;;;;10943819;32;20335;-74
2022/05/24 02:29:23;;;;;;;6.93;3.92;;;24.00;78.10;;;;;;10939188;32;20065;-73
2022/05/24 02:35:25;;;;;;;7.30;4.97;;;24.00;78.00;;;;;;10943156;32;20023;-73
2022/05/24 02:41:34;;;;;;;9.00;5.12;;;24.00;77.90;;;;;;10942927;32;20027;-73
2022/05/24 02:47:36;;;;;;;7.10;4.80;;;23.90;77.80;;;;;;10942955;32;20023;-73
2022/05/24 02:53:54;;;;;;;8.20;4.93;;;23.90;77.70;;;;;;10942812;32;20027;-73
2022/05/24 02:59:56;;;;;;;8.63;4.40;;;23.90;77.70;;;;;;10941875;32;20034;-73
2022/05/24 03:05:58;;;;;;;7.28;4.12;;;23.90;77.60;;;;;;10941855;32;20031;-73
2022/05/24 03:18:24;;;;;;;6.00;4.55;;;23.90;77.20;;;;;;10942043;32;20085;-74
2022/05/24 03:24:26;;;;;;;7.15;5.07;;;23.80;77.30;;;;;;10942064;32;20347;-73
2022/05/24 03:30:30;;;;;;;10.02;6.65;;;23.80;77.10;;;;;;10942290;32;20296;-73
2022/05/24 03:36:48;;;;;;;8.80;5.32;;;23.70;77.60;;;;;;10937718;32;20031;-73
2022/05/24 03:42:52;;;;;;;7.22;4.30;;;23.70;77.90;;;;;;10942427;32;20019;-72
2022/05/24 03:48:54;;;;;;;8.10;4.62;;;23.70;78.40;;;;;;10942358;32;20085;-73
2022/05/24 03:54:56;;;;;;;7.55;5.03;;;23.70;78.50;;;;;;10928920;32;20033;-73
2022/05/24 04:00:58;;;;;;;8.40;4.47;;;23.80;79.00;;;;;;10941861;32;20018;-73
2022/05/24 04:07:00;;;;;;;7.20;4.60;;;23.80;79.20;;;;;;10942890;32;20031;-74
2022/05/24 04:13:03;;;;;;;7.62;5.05;;;23.70;79.30;;;;;;10944334;32;20320;-72
2022/05/24 04:19:28;;;;;;;8.80;5.15;;;23.70;79.30;;;;;;10935043;32;20027;-73
2022/05/24 04:25:34;;;;;;;5.85;4.15;;;23.70;79.30;;;;;;10948120;32;20395;-73
2022/05/24 04:31:36;;;;;;;7.97;4.97;;;23.60;79.60;;;;;;10947214;32;20027;-74
2022/05/24 04:37:38;;;;;;;7.60;5.22;;;23.70;79.30;;;;;;10947545;32;20026;-73
2022/05/24 04:43:52;;;;;;;8.27;5.20;;;23.70;79.20;;;;;;10947352;32;20023;-74
2022/05/24 04:49:56;;;;;;;12.75;6.22;;;23.70;79.00;;;;;;10947230;32;20093;-73
2022/05/24 04:56:05;;;;;;;8.90;5.40;;;23.70;79.10;;;;;;10947136;32;20023;-73
2022/05/24 05:02:09;;;;;;;9.80;7.32;;;23.80;78.90;;;;;;10946581;32;20061;-73
2022/05/24 05:08:12;;;;;;;10.07;5.40;;;23.80;79.00;;;;;;10946067;32;20019;-74
2022/05/24 05:14:31;;;;;;;7.97;6.12;;;23.80;79.70;;;;;;10945218;32;20024;-73
2022/05/24 05:20:41;;;;;;;9.98;6.05;;;23.80;79.30;;;;;;10945196;32;20027;-73
2022/05/24 05:26:44;;;;;;;12.65;7.37;;;23.80;79.50;;;;;;10945639;32;20390;-74
2022/05/24 05:32:50;;;;;;;9.63;6.65;;;23.90;79.50;;;;;;10945498;32;20041;-73
2022/05/24 05:38:53;;;;;;;14.93;7.82;;;23.90;79.30;;;;;;10931661;32;20335;-77
2022/05/24 05:44:57;;;;;;;12.20;6.15;;;23.80;79.40;;;;;;10940843;32;20015;-77
2022/05/24 05:51:00;;;;;;;12.90;6.82;;;23.80;79.60;;;;;;10944448;32;20057;-73
2022/05/24 05:57:02;;;;;;;10.32;6.32;;;24.00;79.70;;;;;;10944280;32;20031;-76
2022/05/24 06:03:05;;;;;;;13.62;6.12;;;24.10;79.40;;;;;;10943868;32;20058;-72
2022/05/24 06:09:08;;;;;;;10.82;5.72;;;24.30;78.80;;;;;;10942444;32;20383;-72
2022/05/24 06:15:10;;;;;;;14.70;7.15;;;24.50;78.50;;;;;;10939040;32;20041;-75
2022/05/24 06:21:22;;;;;;;13.82;6.10;;;24.60;78.60;;;;;;10942713;32;20023;-74
2022/05/24 06:27:25;;;;;;;16.60;7.20;;;24.80;77.80;;;;;;10942942;32;20050;-74
2022/05/24 06:33:27;;;;;;;10.20;5.80;;;24.80;78.00;;;;;;10938809;32;20429;-72
2022/05/24 06:39:30;;;;;;;9.93;5.25;;;24.80;77.60;;;;;;10934122;32;20018;-71
2022/05/24 06:45:34;;;;;;;14.60;6.90;;;24.90;77.50;;;;;;10942414;32;20015;-75
2022/05/24 06:51:36;;;;;;;9.40;4.55;;;24.90;77.20;;;;;;10941248;32;20034;-73
2022/05/24 06:57:38;;;;;;;9.00;5.80;;;24.90;76.60;;;;;;10938511;32;20027;-71
2022/05/24 07:03:40;;;;;;;8.07;5.37;;;24.90;76.60;;;;;;10942206;32;20350;-74
2022/05/24 07:09:44;;;;;;;10.45;5.20;;;24.80;76.70;;;;;;10942199;32;20390;-75
2022/05/24 07:16:01;;;;;;;9.55;5.25;;;24.80;76.50;;;;;;10942006;32;20104;-73
2022/05/24 07:22:09;;;;;;;10.82;5.80;;;24.80;77.00;;;;;;10937515;32;20027;-72
2022/05/24 07:28:23;;;;;;;8.85;5.10;;;25.00;76.70;;;;;;10926190;32;20027;-75
2022/05/24 07:34:25;;;;;;;20.52;6.37;;;25.30;76.50;;;;;;10941032;32;20015;-74
2022/05/24 07:47:00;;;;;;;9.55;4.65;;;25.30;76.30;;;;;;10947493;32;20041;-76
2022/05/24 07:53:03;;;;;;;13.30;5.03;;;25.20;76.10;;;;;;10948403;32;20049;-76
2022/05/24 07:59:05;;;;;;;8.02;4.62;;;25.30;75.90;;;;;;10948383;32;20059;-75
2022/05/24 08:05:07;;;;;;;18.83;5.85;;;25.50;75.60;;;;;;10948174;32;20049;-76
2022/05/24 08:11:09;;;;;;;25.02;5.43;;;25.60;74.60;;;;;;10946391;32;20403;-73
2022/05/24 08:17:12;;;;;;;7.87;4.90;;;25.80;73.90;;;;;;10933149;32;20026;-75
2022/05/24 08:23:15;;;;;;;11.00;4.97;;;26.00;73.50;;;;;;10947376;32;20375;-77
2022/05/24 08:29:17;;;;;;;11.27;4.78;;;26.20;73.00;;;;;;10946379;32;20305;-75
2022/05/24 08:35:20;;;;;;;38.25;6.97;;;26.50;72.30;;;;;;10933403;32;20019;-74
2022/05/24 08:42:03;;;;;;;11.02;4.95;;;26.60;72.50;;;;;;10946447;32;20039;-76
2022/05/24 08:48:33;;;;;;;5.40;4.07;;;26.60;72.20;;;;;;10943131;32;20407;-74
2022/05/24 08:54:43;;;;;;;16.70;7.03;;;26.60;71.80;;;;;;10754695;33;20326;-73
2022/05/24 09:00:46;;;;;;;9.18;4.85;;;26.50;72.30;;;;;;10756556;33;20438;-77
2022/05/24 09:07:16;;;;;;;15.20;6.03;;;26.30;72.20;;;;;;10745223;33;20025;-74
2022/05/24 09:13:37;;;;;;;7.85;4.43;;;26.30;72.50;;;;;;10768287;27;20102;-73
2022/05/24 09:19:42;;;;;;;21.42;5.15;;;26.60;71.00;;;;;;10862104;32;20027;-73
2022/05/24 09:26:02;;;;;;;7.00;3.92;;;27.10;70.70;;;;;;10866853;32;20363;-75
2022/05/24 09:32:09;;;;;;;20.08;4.93;;;27.30;69.20;;;;;;11000522;32;20050;-78
2022/05/24 09:38:16;;;;;;;7.20;4.43;;;27.40;69.30;;;;;;11018864;32;20060;-77
2022/05/24 09:44:18;;;;;;;11.93;4.12;;;27.50;67.80;;;;;;11019972;32;20040;-74
2022/05/24 09:50:23;;;;;;;7.47;3.80;;;27.80;66.50;;;;;;11017791;32;20014;-73
2022/05/24 09:56:33;;;;;;;5.62;3.05;;;28.00;65.50;;;;;;11019736;32;20014;-74
2022/05/24 10:02:39;;;;;;;5.62;2.83;;;28.10;64.70;;;;;;11018424;32;20072;-76
2022/05/24 10:08:52;;;;;;;5.50;3.10;;;28.20;63.70;;;;;;11018762;32;20022;-74
2022/05/24 10:15:29;;;;;;;11.75;4.55;;;28.30;62.90;;;;;;11019230;32;20085;-74
2022/05/24 10:21:40;;;;;;;9.23;5.20;;;28.40;61.70;;;;;;11018934;32;20026;-75
2022/05/24 10:28:20;;;;;;;7.87;4.47;;;28.30;62.00;;;;;;11014568;32;20049;-79
2022/05/24 10:41:33;;;;;;;9.75;4.55;;;28.80;60.40;;;;;;10939286;32;20038;-75
2022/05/24 10:48:07;;;;;;;5.75;4.37;;;29.10;60.10;;;;;;10938414;32;20027;-76
2022/05/24 10:54:26;;;;;;;10.65;4.85;;;29.40;59.40;;;;;;10934877;32;20031;-76
2022/05/24 11:00:43;;;;;;;13.57;5.95;;;29.60;59.00;;;;;;10911321;32;20049;-76
2022/05/24 11:06:58;;;;;;;10.93;6.20;;;29.80;58.70;;;;;;10920654;32;20058;-77
2022/05/24 11:13:13;;;;;;;9.57;5.00;;;30.10;58.10;;;;;;10981286;32;20093;-75
2022/05/24 11:19:21;;;;;;;12.93;5.15;;;30.00;58.70;;;;;;10999291;32;20073;-75
2022/05/24 11:25:41;;;;;;;11.12;5.53;;;30.10;58.90;;;;;;10969480;32;20045;-75
2022/05/24 11:32:06;;;;;;;8.88;4.37;;;30.30;57.90;;;;;;10986879;32;20019;-74
2022/05/24 11:38:14;;;;;;;9.43;4.43;;;30.70;57.50;;;;;;10986729;32;20019;-76
2022/05/24 11:44:45;;;;;;;7.72;4.95;;;30.90;57.10;;;;;;10986050;32;20088;-76
2022/05/24 11:50:53;;;;;;;8.10;4.80;;;30.30;57.70;;;;;;10987002;32;20403;-75
2022/05/24 11:57:21;;;;;;;7.82;4.53;;;29.60;58.90;;;;;;10981567;32;20426;-76
2022/05/24 12:09:59;;;;;;;7.60;5.80;;;29.00;60.30;;;;;;10988758;32;20370;-75
2022/05/24 12:16:05;;;;;;;8.45;5.12;;;28.90;60.50;;;;;;10992830;32;20022;-74
2022/05/24 12:22:13;;;;;;;16.80;6.43;;;28.80;60.70;;;;;;10986515;32;20027;-76
2022/05/24 12:28:16;;;;;;;12.32;6.32;;;28.90;60.70;;;;;;10984109;32;20054;-75
2022/05/24 12:34:19;;;;;;;25.20;6.30;;;29.30;60.40;;;;;;10971432;32;20022;-75
2022/05/24 12:40:27;;;;;;;10.38;5.05;;;29.60;59.80;;;;;;10984731;32;20049;-77
2022/05/24 12:46:34;;;;;;;12.23;7.50;;;29.80;59.20;;;;;;10984461;32;20080;-76
2022/05/24 12:52:42;;;;;;;6.57;4.45;;;30.00;59.00;;;;;;10970969;32;20442;-76
2022/05/24 12:58:49;;;;;;;10.20;5.10;;;29.80;59.10;;;;;;10983926;32;20370;-76
2022/05/24 13:05:15;;;;;;;11.48;5.35;;;29.60;59.60;;;;;;10983933;32;20326;-75
2022/05/24 13:11:18;;;;;;;9.88;4.32;;;29.60;58.50;;;;;;10970275;32;20053;-75
2022/05/24 13:17:23;;;;;;;8.60;4.93;;;29.70;58.00;;;;;;10983232;32;20379;-76
2022/05/24 13:23:38;;;;;;;5.35;4.20;;;29.80;57.50;;;;;;10981875;32;20457;-77
2022/05/24 13:36:20;;;;;;;9.55;3.90;;;29.90;56.80;;;;;;10979986;32;20035;-76
2022/05/24 13:42:25;;;;;;;8.80;4.07;;;29.90;56.30;;;;;;10981805;32;20374;-76
2022/05/24 13:48:28;;;;;;;6.20;3.12;;;29.80;56.50;;;;;;10980211;32;20061;-76
2022/05/24 13:54:33;;;;;;;8.48;2.72;;;29.80;56.20;;;;;;10980767;32;20034;-75
2022/05/24 14:01:29;;;;;;;36.10;6.28;;;29.80;56.20;;;;;;10966305;32;20394;-76
2022/05/24 14:07:31;;;;;;;10.60;3.28;;;29.80;55.70;;;;;;10779531;32;20074;-76
2022/05/24 14:13:33;;;;;;;4.20;2.72;;;29.80;55.80;;;;;;10771587;33;20410;-76
2022/05/24 14:19:38;;;;;;;10.48;3.42;;;29.70;55.80;;;;;;10789905;33;20059;-77
2022/05/24 14:25:41;;;;;;;7.53;3.70;;;29.90;55.60;;;;;;10763204;33;20074;-76
2022/05/24 14:31:43;;;;;;;7.45;3.15;;;29.80;56.10;;;;;;10751570;33;20086;-76
2022/05/24 14:37:50;;;;;;;6.65;3.25;;;29.80;56.10;;;;;;10779400;33;20068;-74
2022/05/24 14:44:01;;;;;;;9.87;4.10;;;29.80;56.10;;;;;;10952824;32;20582;-76
2022/05/24 14:50:17;;;;;;;7.43;3.90;;;29.80;56.40;;;;;;10997332;32;20620;-76
2022/05/24 14:56:19;;;;;;;8.98;4.55;;;29.80;56.30;;;;;;10987776;32;20031;-76
2022/05/24 15:02:21;;;;;;;6.00;3.20;;;29.80;56.60;;;;;;10966246;32;20326;-76
2022/05/24 15:21:35;;;;;;;5.57;2.92;;;29.70;56.70;;;;;;10975844;32;20054;-77
2022/05/24 15:27:38;;;;;;;5.90;3.10;;;29.70;56.70;;;;;;10975393;32;20018;-76
2022/05/24 15:33:40;;;;;;;5.60;3.47;;;29.90;56.60;;;;;;10975099;32;20054;-77
2022/05/24 15:39:42;;;;;;;7.85;3.47;;;29.90;56.40;;;;;;10979134;32;20053;-75
2022/05/24 15:45:48;;;;;;;12.13;3.72;;;29.90;56.60;;;;;;10990220;32;20088;-75
2022/05/24 15:51:50;;;;;;;7.87;3.08;;;29.80;56.70;;;;;;11017238;32;20330;-73
2022/05/24 15:57:53;;;;;;;11.23;4.45;;;29.80;56.90;;;;;;11003420;32;20018;-74
2022/05/24 16:03:55;;;;;;;7.40;3.40;;;29.80;57.00;;;;;;11019152;32;20022;-74
2022/05/24 16:10:04;;;;;;;3.87;2.75;;;29.70;57.30;;;;;;11019672;32;20053;-73
2022/05/24 16:16:09;;;;;;;6.20;2.42;;;29.70;57.10;;;;;;11023914;32;20014;-75
2022/05/24 16:22:22;;;;;;;10.25;4.28;;;29.70;57.80;;;;;;10998442;32;20061;-73
2022/05/24 16:28:25;;;;;;;4.68;2.40;;;29.60;58.20;;;;;;11018282;32;20040;-73
2022/05/24 16:34:45;;;;;;;7.87;2.65;;;29.60;58.00;;;;;;10984938;32;20045;-73
2022/05/24 16:40:49;;;;;;;8.18;3.25;;;29.70;57.70;;;;;;10971288;32;20022;-73
2022/05/24 16:46:57;;;;;;;5.12;2.62;;;29.60;57.60;;;;;;10980869;32;20026;-74
2022/05/24 16:53:10;;;;;;;9.02;4.18;;;29.50;57.90;;;;;;10984492;32;20403;-74
2022/05/24 16:59:19;;;;;;;15.02;4.90;;;29.40;58.60;;;;;;11010034;32;20026;-73
2022/05/24 17:05:31;;;;;;;6.22;2.95;;;29.30;58.60;;;;;;11021235;32;20048;-73
2022/05/24 17:11:34;;;;;;;11.70;4.07;;;29.30;58.80;;;;;;11021761;32;20026;-73
2022/05/24 17:17:41;;;;;;;8.68;2.55;;;29.30;59.00;;;;;;10965303;27;20371;-73
2022/05/24 17:23:44;;;;;;;6.28;2.92;;;29.30;59.20;;;;;;10905711;32;20339;-73
2022/05/24 17:29:47;;;;;;;10.75;3.20;;;29.30;59.20;;;;;;10907599;32;20027;-74
2022/05/24 17:35:50;;;;;;;7.18;2.75;;;29.10;60.50;;;;;;10903907;32;20391;-74
2022/05/24 17:41:54;;;;;;;7.75;3.60;;;28.80;60.90;;;;;;10903048;32;20031;-73
2022/05/24 17:48:01;;;;;;;5.05;2.67;;;28.90;60.80;;;;;;10906051;32;20086;-73
2022/05/24 17:54:04;;;;;;;5.15;2.67;;;29.00;60.50;;;;;;10906786;32;20019;-73
2022/05/24 18:00:09;;;;;;;6.03;3.17;;;29.10;60.30;;;;;;10906658;32;20434;-73
2022/05/24 18:06:14;;;;;;;3.65;1.80;;;28.90;60.70;;;;;;10903190;32;20031;-75
2022/05/24 18:12:20;;;;;;;4.20;2.85;;;28.60;61.50;;;;;;10906046;32;20031;-75
2022/05/24 18:18:24;;;;;;;4.87;2.40;;;28.40;61.70;;;;;;10905605;32;20023;-76
2022/05/24 18:24:45;;;;;;;7.87;2.30;;;28.20;62.20;;;;;;10905675;32;20051;-76
2022/05/24 18:37:21;;;;;;;;;;;27.90;62.90;;;;;;10905770;32;20023;-73
2022/05/24 18:43:25;;;;;;;5.85;2.90;;;27.80;63.40;;;;;;10905114;32;19941;-73
2022/05/24 18:49:28;;;;;;;10.23;2.47;;;27.70;63.50;;;;;;10891892;32;20049;-73
2022/05/24 18:55:32;;;;;;;4.85;3.08;;;27.70;63.70;;;;;;10905008;32;20012;-73
2022/05/24 19:01:38;;;;;;;11.70;3.70;;;27.50;64.30;;;;;;10900276;32;20097;-73
2022/05/24 19:07:44;;;;;;;7.87;2.95;;;27.40;64.80;;;;;;10905386;32;20050;-73
2022/05/24 19:13:49;;;;;;;5.82;2.95;;;27.30;65.00;;;;;;10904658;32;20084;-73
2022/05/24 19:20:18;;;;;;;6.62;3.50;;;27.30;65.30;;;;;;10904642;32;20015;-73
2022/05/24 19:26:20;;;;;;;8.88;3.15;;;27.30;65.50;;;;;;10904349;32;20050;-73
2022/05/24 19:32:23;;;;;;;5.25;2.53;;;27.20;65.70;;;;;;10901985;32;20042;-73
2022/05/24 19:38:25;;;;;;;7.85;2.75;;;27.20;65.70;;;;;;10900817;32;20305;-73
2022/05/24 19:44:27;;;;;;;5.78;2.97;;;27.20;65.90;;;;;;10910908;32;20383;-73
2022/05/24 19:50:30;;;;;;;6.25;2.53;;;27.10;66.00;;;;;;10906926;32;20038;-73
2022/05/24 19:56:32;;;;;;;8.52;3.85;;;27.10;66.10;;;;;;10910894;32;20023;-73
2022/05/24 20:02:34;;;;;;;6.10;3.50;;;27.10;66.40;;;;;;10910048;32;20331;-73
2022/05/24 20:08:36;;;;;;;7.35;3.12;;;27.10;66.50;;;;;;10895661;32;20435;-73
2022/05/24 20:14:45;;;;;;;6.70;3.87;;;27.00;66.90;;;;;;10910759;32;20019;-73
2022/05/24 20:20:48;;;;;;;6.45;3.95;;;26.90;67.20;;;;;;10906448;32;20024;-73
2022/05/24 20:26:50;;;;;;;10.77;3.45;;;26.90;67.40;;;;;;10910882;32;20049;-73
2022/05/24 20:32:59;;;;;;;7.87;3.33;;;26.80;67.70;;;;;;10905930;32;20376;-73
2022/05/24 20:39:04;;;;;;;5.20;3.35;;;26.80;67.80;;;;;;10909889;32;20057;-73
2022/05/24 20:45:08;;;;;;;5.45;3.20;;;26.80;67.80;;;;;;10909762;32;20019;-73
2022/05/24 20:51:11;;;;;;;7.87;3.80;;;26.80;67.90;;;;;;10909229;32;20399;-73
2022/05/24 20:57:13;;;;;;;10.05;3.25;;;26.70;68.30;;;;;;10909391;32;20395;-73
2022/05/24 21:03:16;;;;;;;7.95;4.60;;;26.60;68.80;;;;;;10908969;32;20023;-73
2022/05/24 21:09:18;;;;;;;7.32;3.67;;;26.60;69.00;;;;;;10908841;32;20384;-73
2022/05/24 21:15:23;;;;;;;8.93;4.05;;;26.60;68.90;;;;;;10915453;32;20057;-75
2022/05/24 21:21:50;;;;;;;9.32;4.00;;;26.60;68.70;;;;;;10945882;32;20347;-73
2022/05/24 21:28:01;;;;;;;5.50;2.78;;;26.10;67.60;;;;;;10945702;32;20018;-73
2022/05/24 21:34:04;;;;;;;3.47;2.12;;;25.80;68.10;;;;;;10945435;32;20038;-72
2022/05/24 21:40:22;;;;;;;3.58;1.83;;;25.70;68.60;;;;;;10932448;32;20077;-73
2022/05/24 21:46:34;;;;;;;12.55;2.12;;;25.50;68.90;;;;;;10944923;32;20379;-72
2022/05/24 21:52:37;;;;;;;5.35;2.00;;;25.40;70.00;;;;;;10944641;32;20430;-76
2022/05/24 21:58:40;;;;;;;6.18;2.47;;;25.30;70.60;;;;;;10944399;32;20019;-76
2022/05/24 22:04:43;;;;;;;4.65;2.67;;;25.10;70.90;;;;;;10943542;32;20386;-77
2022/05/24 22:10:46;;;;;;;5.75;2.28;;;25.00;71.80;;;;;;10943865;32;20042;-74
2022/05/24 22:16:56;;;;;;;4.47;2.25;;;24.90;72.50;;;;;;10943830;32;20305;-73
2022/05/24 22:23:00;;;;;;;3.60;2.30;;;24.80;73.30;;;;;;10943372;32;20023;-71
2022/05/24 22:29:02;;;;;;;2.83;2.03;;;24.60;72.40;;;;;;10941252;32;20023;-75
2022/05/24 22:35:06;;;;;;;4.07;1.98;;;24.30;72.10;;;;;;10940072;32;20038;-76
2022/05/24 22:41:14;;;;;;;4.75;2.15;;;24.20;72.70;;;;;;10929391;32;20050;-72
2022/05/24 22:47:16;;;;;;;2.20;1.42;;;24.20;72.90;;;;;;10942671;32;20019;-73
2022/05/24 22:53:19;;;;;;;3.78;1.42;;;24.30;72.90;;;;;;10942573;32;20018;-75
2022/05/24 22:59:24;;;;;;;3.62;1.40;;;24.40;73.40;;;;;;10939251;32;20027;-74
2022/05/24 23:05:26;;;;;;;2.00;1.23;;;24.40;74.10;;;;;;10939564;32;20061;-75
2022/05/24 23:11:28;;;;;;;1.95;1.25;;;24.40;74.40;;;;;;10941665;32;20046;-74
2022/05/24 23:17:32;;;;;;;2.70;1.60;;;24.30;74.80;;;;;;10941776;32;20022;-74
2022/05/24 23:23:34;;;;;;;1.75;1.23;;;24.30;75.30;;;;;;10941784;32;20019;-75
2022/05/24 23:29:36;;;;;;;5.43;2.53;;;24.30;75.50;;;;;;10937365;32;20073;-74
2022/05/24 23:35:39;;;;;;;1.10;1.02;;;24.10;75.70;;;;;;10941621;32;20327;-75
2022/05/24 23:41:41;;;;;;;3.20;2.10;;;24.10;75.70;;;;;;10939188;32;20035;-74
2022/05/24 23:47:43;;;;;;;3.17;1.75;;;24.10;75.90;;;;;;10941198;32;20027;-75
2022/05/24 23:53:45;;;;;;;2.25;1.40;;;24.10;75.90;;;;;;10941267;32;20027;-74
2022/05/24 23:59:51;;;;;;;3.78;1.90;;;24.00;76.50;;;;;;10927549;32;20059;-75
